Thursday, April 19, 2018, 5:25 PM EDT
Back to Local

KPHD, New Philadelphia Clever Fld

Location: New Philadelphia, OH, United States Lat: 40.467
Local Time: 5:25 PM EDT (21:25 GMT) Lon: -81.417
Time Zone: US/Eastern Elev: 895 ft

Show me the last for .
Show Decoded

2018-04-19 16:53 METAR KPHD 192053Z AUTO 32009G17KT 10SM CLR 08/M02 A3015 RMK AO2 SLP216
                 T00831022 51008 =
2018-04-19 15:53 METAR KPHD 191953Z AUTO 32015G21KT 10SM SCT044 07/M03 A3015 RMK AO2 SLP214
                 T00721028 =
2018-04-19 14:53 METAR KPHD 191853Z AUTO 31008KT 10SM OVC040 06/M02 A3015 RMK AO2 SLP216
                 T00561022 =
2018-04-19 13:53 METAR KPHD 191753Z AUTO 32018G22KT 10SM FEW032 OVC041 05/M02 A3013 RMK AO2
                 SLP208 60002 T00501022 10056 20006 51028 =
2018-04-19 13:36 METAR KPHD 191736Z AUTO 33011G21KT 10SM FEW027 BKN036 OVC043 06/M01 A3012 RMK
                 AO2 T00561011 =
2018-04-19 13:00 METAR KPHD 191700Z AUTO 31014G21KT 10SM BKN028 OVC034 04/M02 A3011 RMK AO2
                 T00391017 =
2018-04-19 12:53 METAR KPHD 191653Z AUTO 31012KT 10SM SCT026 OVC032 03/M02 A3010 RMK AO2 SLP200
                 T00331017 =
2018-04-19 12:19 METAR KPHD 191619Z AUTO 30010KT 10SM BKN025 OVC033 03/M02 A3009 RMK AO2
                 T00281017 =
2018-04-19 12:05 METAR KPHD 191605Z AUTO 32010G23KT 10SM SCT024 BKN033 OVC041 03/M02 A3008 RMK
                 AO2 T00281017 =
2018-04-19 11:53 METAR KPHD 191553Z AUTO 30010KT 10SM BKN024 OVC030 03/M02 A3008 RMK AO2 SLP191
                 T00281017 =
2018-04-19 10:53 METAR KPHD 191453Z AUTO 32011G18KT 10SM SCT021 BKN028 OVC039 02/M02 A3004 RMK
                 AO2 SLP179 60002 T00221017 51045 =
2018-04-19 10:18 METAR KPHD 191418Z AUTO 34010KT 10SM SCT013 BKN021 BKN030 03/M01 A3002 RMK AO2
                 T00281006 =
2018-04-19 10:11 METAR KPHD 191411Z AUTO 32015G19KT 10SM BKN013 BKN021 03/00 A3002 RMK AO2
                 T00280000 =
2018-04-19 10:02 METAR KPHD 191402Z AUTO 32011KT 10SM SCT010 BKN016 OVC023 02/M01 A3001 RMK AO2
                 T00171006 =
2018-04-19 09:53 METAR KPHD 191353Z AUTO 31011KT 10SM SCT010 BKN014 OVC019 02/00 A3000 RMK AO2
                 SNE41 SLP163 P0000 T00170000 =
2018-04-19 09:35 METAR KPHD 191335Z AUTO 31007KT 3SM -SN BR BKN008 BKN014 OVC021 01/00 A2998 RMK
                 AO2 P0000 T00110000 =
2018-04-19 09:16 METAR KPHD 191316Z AUTO 31008KT 1 1/2SM -SN BR BKN007 BKN012 OVC017 01/00 A2997
                 RMK AO2 P0000 T00110000 =
2018-04-19 09:08 METAR KPHD 191308Z AUTO 32006G15KT 1SM -SN BR BKN006 BKN012 OVC016 01/00 A2996
                 RMK AO2 P0000 T00110000 =
2018-04-19 08:53 METAR KPHD 191253Z AUTO 31011G17KT 3/4SM -SN BR BKN007 OVC014 01/M01 A2995 RMK
                 AO2 SLP148 P0002 T00061006 =
2018-04-19 08:43 METAR KPHD 191243Z AUTO 30006KT 1SM -SN BR OVC005 01/00 A2995 RMK AO2 P0002
                 T00060000 =
2018-04-19 08:39 METAR KPHD 191239Z AUTO 31007KT 1 1/4SM -SN BR OVC006 01/00 A2994 RMK AO2 P0002
                 T00060000 =
2018-04-19 08:27 METAR KPHD 191227Z AUTO 30008KT 3/4SM -SN BR BKN006 OVC012 01/00 A2993 RMK AO2
                 P0001 T00060000 =
2018-04-19 08:15 METAR KPHD 191215Z AUTO VRB05KT 1SM -SN BR BKN006 OVC013 01/00 A2992 RMK AO2
                 P0001 T00060000 =
2018-04-19 08:01 METAR KPHD 191201Z AUTO 30005KT 1 1/4SM -SN BR SCT007 OVC013 01/00 A2991 RMK AO2
                 P0000 T00060000 =
2018-04-19 07:53 METAR KPHD 191153Z AUTO 31007KT 1SM -SN BR VV013 01/M01 A2991 RMK AO2 SLP132
                 P0002 60003 70020 T00061006 10044 20006 51034 =
2018-04-19 07:49 METAR KPHD 191149Z AUTO 33007KT 1SM -SN BR FEW008 OVC013 01/M01 A2990 RMK AO2
                 P0002 =
2018-04-19 07:37 METAR KPHD 191137Z AUTO 33010KT 3/4SM -SN BR FEW008 OVC013 01/M01 A2990 RMK AO2
                 P0002 T00061006 =
2018-04-19 07:27 METAR KPHD 191127Z AUTO 32008KT 1SM -SN BR SCT008 OVC017 01/M01 A2989 RMK AO2
                 P0001 T00111006 =
2018-04-19 07:22 METAR KPHD 191122Z AUTO 33010KT 1 3/4SM -SN BR SCT008 BKN013 OVC020 01/M01 A2988
                 RMK AO2 P0001 T00111006 =
2018-04-19 07:08 METAR KPHD 191108Z AUTO 31007KT 4SM -SN BR BKN008 BKN015 OVC030 02/01 A2987 RMK
                 AO2 P0001 T00170006 =
2018-04-19 06:58 METAR KPHD 191058Z AUTO 31007KT 3SM -SN BR SCT008 BKN012 OVC029 02/00 A2986 RMK
                 AO2 P0001 T00170000 =
2018-04-19 06:53 METAR KPHD 191053Z AUTO 32006KT 4SM -SN BR SCT010 OVC028 02/01 A2986 RMK AO2
                 UPB12E18B34E45RAB18E34SNB51 SLP115 P0001 T00170006 =
2018-04-19 06:48 METAR KPHD 191048Z AUTO 33008KT 4SM BR SCT008 OVC028 02/01 A2985 RMK AO2
                 UPB12E18B34E45RAB18E34 P0001 =
2018-04-19 06:43 METAR KPHD 191043Z AUTO 33010KT 4SM UP BR BKN010 OVC028 02/01 A2985 RMK AO2
                 UPB12E18B34RAB18E34 P0001 T00170006 =
2018-04-19 06:36 METAR KPHD 191036Z AUTO 33009KT 3SM UP BR BKN008 BKN012 OVC022 02/01 A2984 RMK
                 AO2 UPB12E18B34RAB18E34 P0001 T00170006 =
2018-04-19 06:14 METAR KPHD 191014Z AUTO 32011KT 2 1/2SM UP BR OVC012 02/01 A2982 RMK AO2 UPB12
                 P0000 T00220006 =
2018-04-19 05:53 METAR KPHD 190953Z AUTO 32006KT 6SM BR OVC014 03/01 A2981 RMK AO2 SLP096
                 T00280006 =
2018-04-19 04:53 METAR KPHD 190853Z AUTO 34007KT 10SM OVC010 03/01 A2977 RMK AO2 SLP085 T00330006
                 53010 =
2018-04-19 04:25 METAR KPHD 190825Z AUTO 36007KT 10SM BKN010 OVC018 03/01 A2976 RMK AO2 T00330011
                 =
2018-04-19 03:53 METAR KPHD 190753Z AUTO 35004KT 10SM OVC018 03/02 A2975 RMK AO2 SLP078 T00330017
                 =
2018-04-19 03:42 METAR KPHD 190742Z AUTO 36005KT 10SM FEW009 BKN018 OVC080 04/02 A2975 RMK AO2
                 T00390017 =
2018-04-19 03:24 METAR KPHD 190724Z AUTO 00000KT 10SM FEW009 SCT030 OVC080 04/02 A2975 RMK AO2
                 T00390017 =
2018-04-19 03:11 METAR KPHD 190711Z AUTO 00000KT 10SM FEW010 SCT026 OVC080 04/02 A2976 RMK AO2
                 T00390017 =
2018-04-19 02:53 METAR KPHD 190653Z AUTO 01003KT 10SM FEW011 BKN017 OVC026 04/02 A2976 RMK AO2
                 SLP082 T00390022 =
2018-04-19 02:33 METAR KPHD 190633Z AUTO 34008KT 10SM FEW010 OVC016 04/02 A2978 RMK AO2 T00390017
                 =
2018-04-19 02:21 METAR KPHD 190621Z AUTO 33007KT 10SM BKN010 OVC016 04/03 A2977 RMK AO2 CIG
                 007V013 T00440028 =
2018-04-19 02:11 METAR KPHD 190611Z AUTO 33006KT 10SM BKN009 OVC014 04/03 A2976 RMK AO2 CIG
                 007V013 T00440028 =
2018-04-19 01:53 METAR KPHD 190553Z AUTO 34005KT 10SM OVC012 04/03 A2974 RMK AO2 SLP076 60017
                 T00440028 10111 20044 50006 =
2018-04-19 01:21 METAR KPHD 190521Z AUTO 00000KT 10SM SCT008 OVC013 06/04 A2976 RMK AO2 T00560039
                 =
2018-04-19 01:10 METAR KPHD 190510Z AUTO 05003KT 10SM BKN008 BKN014 OVC050 06/04 A2975 RMK AO2
                 T00560039 =
2018-04-19 01:01 METAR KPHD 190501Z AUTO 35003KT 10SM SCT009 BKN049 OVC100 06/03 A2975 RMK AO2
                 T00560033 =
2018-04-19 00:53 METAR KPHD 190453Z AUTO 36004KT 10SM FEW011 BKN049 OVC055 06/04 A2975 RMK AO2
                 RAE47 SLP077 P0002 T00560039 401221033 =
2018-04-18 23:53 METAR KPHD 190353Z AUTO 32003KT 6SM -RA BR FEW043 OVC055 07/05 A2975 RMK AO2
                 SLP078 P0007 T00670050 =
2018-04-18 23:17 METAR KPHD 190317Z AUTO 31003KT 5SM -RA BR OVC060 07/04 A2974 RMK AO2 P0005
                 T00670044 =
2018-04-18 23:10 METAR KPHD 190310Z AUTO 00000KT 2 1/2SM RA BKN060 OVC085 07/04 A2973 RMK AO2
                 P0005 T00720044 =
2018-04-18 22:53 METAR KPHD 190253Z AUTO 00000KT 9SM -RA BKN065 OVC085 07/04 A2972 RMK AO2 SLP069
                 P0007 60008 T00720039 55003 =
2018-04-18 21:53 METAR KPHD 190153Z AUTO 03005KT 10SM -RA FEW050 OVC065 09/03 A2970 RMK AO2 RAB11
                 SLP060 P0001 T00890028 =
2018-04-18 20:53 METAR KPHD 190053Z AUTO 04006KT 10SM SCT045 BKN065 OVC110 10/00 A2970 RMK AO2
                 SLP061 T01000000 =
2018-04-18 19:53 METAR KPHD 182353Z AUTO 03004KT 10SM OVC043 11/00 A2973 RMK AO2 SLP074 T01110000
                 10122 20089 58003 =
2018-04-18 18:53 METAR KPHD 182253Z AUTO 02003KT 10SM OVC043 12/00 A2974 RMK AO2 SLP077 T01170000
                 =
2018-04-18 17:53 METAR KPHD 182153Z AUTO 00000KT 10SM OVC070 12/M01 A2974 RMK AO2 SLP077
                 T01221006 =

Support USWX by starting your Amazon purchase here.